Revere, MN (56166)

1:57 PM CDT on August 21, 2014 (GMT -0500)
300th st | Change Station
CLOSE
Current Station
Personal Weather Station
Location: Westbrook, MN
Elevation: 1430 ft
Nearby Weather Stations
Active Advisory: Heat Advisory Active Notice: Public Information Statement

Elev 1430 ft 44.05 °N, 95.44 °W | Updated 5 seconds ago

Mostly Cloudy
Mostly Cloudy
86.7 °F
Feels Like 99 °F
N
4.5
Wind Variable Wind from WSW
Gusts 9.2 mph

Today
High -- | Low -- °F
--% Chance of Precip.
Yesterday
High -- | Low -- °F
Precip. -- in
6:31 AM 8:16 PM
Waning Crescent, 13% visible
Pressure 29.75 in
Visibility 10.0 miles
Clouds Mostly Cloudy 2300 ft
Mostly Cloudy 2900 ft
Heat Index 99 °F
Dew Point 78 °F
Humidity 75%
Rainfall 1.98 in
Snow Depth Not available.
UV 5 out of 12
Pollen 4.20 out of 12
Air Quality Not available.
Flu Activity Not available.
METAR KTKC 211833Z AUTO 26004KT 10SM BKN023 BKN029 31/25 A2975 RMK AO2 T03060247

More Conditions Fewer Conditions

Pressure 29.75 in
Visibility 10.0 miles
Clouds Mostly Cloudy 2300 ft
Mostly Cloudy 2900 ft
Heat Index 99 °F
Dew Point 78 °F
Humidity 75%
Rainfall 1.98 in
Snow Depth Not available.
UV 5 out of 12
Pollen 4.20 out of 12
Air Quality Not available.
Flu Activity Not available.
METAR KTKC 211833Z AUTO 26004KT 10SM BKN023 BKN029 31/25 A2975 RMK AO2 T03060247

More Conditions Fewer Conditions

10-Day Weather Forecast

Almanac

Astronomy

Aug. 21, 2014 Rise Set
Actual Time 6:31 AM CDT 8:16 PM CDT
Civil Twilight 6:00 AM CDT 8:47 PM CDT
Nautical Twilight 5:23 AM CDT 9:24 PM CDT
Astronomical Twilight 4:42 AM CDT 10:04 PM CDT
Moon 2:59 AM CDT 5:49 PM CDT
Length of Visible Light 14h 46m
Length of Day
13h 44m
Tomorrow will be 2m 48s shorter.
Waning Crescent, 13% of the Moon is Illuminated
Today
Waning Crescent
Aug 25
New
Sep 2
First Quarter
Sep 8
Full
Sep 15
Last Quarter

Today's Extremes

State Highs State Lows

Community

WunderPhotos

Upload Photos

1,745,996 photos uploaded!

WunderBlogs® & News

Nearby

Snow Depth

Station Depth Elevation
No new snow has been reported.

Earthquake Activity

City Distance Mag. Time & Date
No recent earthquake activity has been reported nearby.
Minimum magnitude displayed is 2.5.

Coastal Water Temperatures

Place Temperature
No Stations Reporting

Nearby Weather Stations